createdAt,value
2022-08-21T00:01:07.265Z,15.20
2022-08-21T00:03:42.020Z,14.38
2022-08-21T00:06:15.844Z,14.73
2022-08-21T00:08:46.531Z,15.65
2022-08-21T00:11:17.106Z,14.63
2022-08-21T00:13:47.226Z,13.82
2022-08-21T00:16:17.492Z,14.98
2022-08-21T00:18:47.927Z,13.65
2022-08-21T00:21:18.566Z,15.10
2022-08-21T00:23:48.589Z,16.52
2022-08-21T00:26:18.755Z,17.23
2022-08-21T00:28:51.293Z,16.92
2022-08-21T00:31:22.412Z,15.90
2022-08-21T00:33:52.917Z,17.70
2022-08-21T00:36:31.322Z,16.85
2022-08-21T00:39:01.934Z,11.10
2022-08-21T00:41:38.117Z,15.32
2022-08-21T00:44:11.393Z,15.10
2022-08-21T00:46:42.418Z,15.32
2022-08-21T00:49:14.062Z,16.08
2022-08-21T00:51:51.698Z,16.55
2022-08-21T00:54:24.715Z,17.13
2022-08-21T00:56:59.651Z,15.52
2022-08-21T00:59:32.037Z,16.15
2022-08-21T01:02:02.338Z,17.35
2022-08-21T01:04:32.784Z,15.68
2022-08-21T01:07:03.431Z,20.52
2022-08-21T01:09:33.527Z,15.40
2022-08-21T01:12:04.020Z,15.27
2022-08-21T01:14:34.433Z,17.60
2022-08-21T01:17:06.049Z,17.17
2022-08-21T01:19:36.884Z,17.92
2022-08-21T01:22:07.496Z,12.70
2022-08-21T01:24:37.648Z,14.15
2022-08-21T01:27:08.494Z,14.20
2022-08-21T01:29:46.135Z,15.25
2022-08-21T01:32:18.853Z,15.10
2022-08-21T01:34:50.849Z,15.30
2022-08-21T01:37:22.194Z,15.32
2022-08-21T01:39:52.313Z,15.63
2022-08-21T01:42:22.933Z,16.55
2022-08-21T01:44:54.719Z,15.50
2022-08-21T01:47:26.784Z,14.75
2022-08-21T01:49:57.543Z,14.35
2022-08-21T01:52:28.054Z,14.25
2022-08-21T01:54:58.489Z,13.50
2022-08-21T01:57:28.717Z,13.93
2022-08-21T01:59:59.424Z,14.15
2022-08-21T02:02:29.588Z,13.23
2022-08-21T02:05:00.079Z,12.43
2022-08-21T02:07:30.661Z,12.43
2022-08-21T02:10:01.233Z,12.15
2022-08-21T02:12:32.110Z,11.10
2022-08-21T02:15:03.071Z,12.77
2022-08-21T02:17:40.911Z,11.52
2022-08-21T02:20:12.198Z,11.32
2022-08-21T02:22:42.652Z,12.10
2022-08-21T02:25:13.221Z,13.07
2022-08-21T02:27:44.586Z,12.00
2022-08-21T02:30:16.604Z,11.80
2022-08-21T02:32:46.974Z,13.50
2022-08-21T02:35:18.069Z,10.95
2022-08-21T02:37:51.059Z,13.00
2022-08-21T02:40:23.912Z,13.00
2022-08-21T02:42:54.677Z,13.70
2022-08-21T02:45:24.907Z,12.82
2022-08-21T02:47:56.584Z,12.73
2022-08-21T02:50:31.996Z,12.68
2022-08-21T02:53:02.463Z,16.75
2022-08-21T02:55:33.680Z,13.80
2022-08-21T02:58:04.312Z,11.73
2022-08-21T03:00:35.451Z,11.98
2022-08-21T03:03:06.109Z,12.18
2022-08-21T03:05:37.734Z,15.88
2022-08-21T03:08:11.893Z,14.02
2022-08-21T03:10:43.199Z,12.35
2022-08-21T03:13:14.060Z,13.45
2022-08-21T03:15:45.133Z,13.15
2022-08-21T03:18:15.777Z,13.50
2022-08-21T03:20:47.675Z,15.90
2022-08-21T03:23:19.760Z,16.35
2022-08-21T03:25:50.958Z,17.45
2022-08-21T03:28:23.895Z,19.15
2022-08-21T03:30:54.835Z,18.58
2022-08-21T03:33:25.900Z,16.95
2022-08-21T03:36:05.160Z,17.83
2022-08-21T03:38:36.306Z,17.73
2022-08-21T03:41:10.402Z,17.27
2022-08-21T03:43:41.051Z,15.82
2022-08-21T03:46:11.994Z,15.52
2022-08-21T03:48:42.655Z,14.55
2022-08-21T03:51:12.815Z,15.35
2022-08-21T03:53:42.808Z,13.77
2022-08-21T03:56:13.205Z,15.35
2022-08-21T03:58:43.961Z,18.77
2022-08-21T04:01:15.119Z,16.73
2022-08-21T04:03:45.457Z,14.77
2022-08-21T04:06:16.126Z,38.42
2022-08-21T04:08:47.013Z,50.38
2022-08-21T04:11:17.551Z,47.03
2022-08-21T04:13:47.928Z,32.90
2022-08-21T04:16:18.288Z,31.58
2022-08-21T04:18:48.778Z,24.70
2022-08-21T04:21:20.040Z,17.35
2022-08-21T04:23:54.802Z,27.20
2022-08-21T04:26:26.709Z,25.35
2022-08-21T04:28:59.845Z,25.48
2022-08-21T04:31:31.177Z,13.77
2022-08-21T04:34:01.546Z,11.10
2022-08-21T04:36:32.137Z,11.15
2022-08-21T04:39:03.565Z,10.27
2022-08-21T04:41:35.193Z,9.38
2022-08-21T04:44:06.730Z,9.10
2022-08-21T04:46:37.244Z,9.10
2022-08-21T04:49:07.706Z,9.77
2022-08-21T04:51:39.559Z,23.38
2022-08-21T04:54:17.060Z,23.35
2022-08-21T04:56:51.164Z,21.70
2022-08-21T04:59:24.455Z,9.40
2022-08-21T05:01:56.614Z,8.80
2022-08-21T05:04:28.455Z,8.23
2022-08-21T05:07:00.173Z,7.10
2022-08-21T05:09:31.716Z,7.80
2022-08-21T05:12:02.150Z,6.82
2022-08-21T05:14:32.525Z,7.20
2022-08-21T05:17:03.384Z,6.60
2022-08-21T05:19:33.482Z,7.10
2022-08-21T05:22:03.545Z,6.82
2022-08-21T05:24:33.974Z,7.05
2022-08-21T05:27:06.022Z,7.05
2022-08-21T05:29:36.255Z,7.68
2022-08-21T05:32:12.527Z,7.85
2022-08-21T05:34:42.712Z,8.10
2022-08-21T05:37:14.573Z,7.28
2022-08-21T05:40:04.760Z,7.32
2022-08-21T05:42:35.822Z,8.50
2022-08-21T05:45:07.773Z,7.95
2022-08-21T05:47:38.994Z,8.00
2022-08-21T05:50:12.831Z,8.70
2022-08-21T05:52:45.419Z,8.80
2022-08-21T05:55:16.019Z,9.25
2022-08-21T05:57:46.131Z,9.25
2022-08-21T06:00:16.684Z,8.50
2022-08-21T06:02:47.218Z,8.40
2022-08-21T06:05:35.846Z,8.23
2022-08-21T06:08:08.249Z,7.80
2022-08-21T06:10:39.173Z,7.47
2022-08-21T06:13:09.626Z,8.05
2022-08-21T06:15:39.706Z,7.80
2022-08-21T06:18:09.983Z,7.05
2022-08-21T06:20:41.000Z,7.45
2022-08-21T06:23:11.603Z,7.47
2022-08-21T06:25:42.386Z,6.88
2022-08-21T06:28:13.598Z,6.93
2022-08-21T06:30:43.951Z,6.30
2022-08-21T06:33:14.038Z,7.03
2022-08-21T06:35:48.331Z,7.03
2022-08-21T06:38:18.859Z,7.00
2022-08-21T06:40:50.139Z,6.47
2022-08-21T06:43:21.329Z,7.57
2022-08-21T06:46:01.176Z,7.30
2022-08-21T06:48:33.454Z,11.30
2022-08-21T06:51:04.212Z,6.82
2022-08-21T06:53:35.049Z,6.70
2022-08-21T06:56:05.955Z,8.13
2022-08-21T06:58:36.381Z,7.80
2022-08-21T07:01:07.140Z,7.15
2022-08-21T07:03:39.724Z,6.63
2022-08-21T07:06:11.886Z,6.35
2022-08-21T07:08:41.998Z,6.05
2022-08-21T07:11:21.832Z,6.25
2022-08-21T07:13:54.274Z,5.22
2022-08-21T07:16:24.985Z,5.38
2022-08-21T07:18:55.335Z,5.68
2022-08-21T07:21:28.333Z,5.78
2022-08-21T07:24:00.295Z,6.15
2022-08-21T07:26:30.486Z,6.25
2022-08-21T07:29:00.781Z,4.32
2022-08-21T07:31:31.984Z,4.40
2022-08-21T07:34:02.815Z,4.60
2022-08-21T07:36:33.460Z,4.57
2022-08-21T07:39:05.329Z,4.93
2022-08-21T07:41:37.970Z,5.00
2022-08-21T07:44:08.063Z,5.68
2022-08-21T07:46:38.928Z,4.90
2022-08-21T07:49:09.515Z,5.10
2022-08-21T07:51:43.350Z,6.15
2022-08-21T07:54:17.069Z,6.13
2022-08-21T07:56:48.213Z,6.85
2022-08-21T07:59:18.357Z,6.78
2022-08-21T08:01:49.364Z,7.00
2022-08-21T08:04:23.254Z,7.50
2022-08-21T08:06:56.480Z,7.78
2022-08-21T08:09:27.321Z,8.55
2022-08-21T08:11:57.875Z,8.63
2022-08-21T08:14:31.364Z,7.95
2022-08-21T08:17:02.214Z,9.18
2022-08-21T08:19:33.165Z,8.98
2022-08-21T08:22:04.334Z,7.75
2022-08-21T08:24:34.743Z,8.13
2022-08-21T08:27:05.187Z,7.80
2022-08-21T08:29:35.371Z,8.32
2022-08-21T08:32:06.605Z,7.15
2022-08-21T08:34:37.901Z,6.28
2022-08-21T08:37:09.404Z,6.68
2022-08-21T08:39:40.504Z,7.47
2022-08-21T08:42:33.752Z,7.22
2022-08-21T08:45:08.755Z,7.03
2022-08-21T08:47:41.057Z,7.00
2022-08-21T08:50:17.300Z,8.25
2022-08-21T08:52:52.459Z,7.45
2022-08-21T08:55:27.237Z,7.43
2022-08-21T08:57:58.497Z,7.18
2022-08-21T09:00:28.732Z,6.75
2022-08-21T09:03:01.355Z,7.80
2022-08-21T09:05:51.643Z,7.78
2022-08-21T09:08:41.910Z,8.10
2022-08-21T09:11:31.626Z,7.68
2022-08-21T09:14:12.429Z,6.85
2022-08-21T09:16:50.562Z,6.95
2022-08-21T09:19:42.121Z,7.43
2022-08-21T09:22:32.783Z,6.60
2022-08-21T09:25:10.363Z,8.43
2022-08-21T09:27:41.124Z,7.10
2022-08-21T09:30:12.557Z,9.23
2022-08-21T09:32:43.916Z,8.20
2022-08-21T09:35:19.529Z,7.13
2022-08-21T09:38:09.857Z,8.98
2022-08-21T09:40:50.383Z,8.48
2022-08-21T09:43:23.958Z,7.65
2022-08-21T09:46:05.214Z,8.77
2022-08-21T09:48:42.963Z,7.22
2022-08-21T09:51:17.096Z,7.80
2022-08-21T09:53:49.307Z,8.75
2022-08-21T09:56:49.606Z,7.93
2022-08-21T09:59:37.384Z,8.43
2022-08-21T10:02:27.382Z,8.55
2022-08-21T10:04:59.500Z,8.32
2022-08-21T10:07:32.047Z,7.72
2022-08-21T10:10:03.765Z,8.30
2022-08-21T10:12:43.057Z,7.97
2022-08-21T10:15:32.830Z,7.20
2022-08-21T10:18:10.843Z,8.13
2022-08-21T10:20:51.161Z,7.90
2022-08-21T10:23:33.255Z,8.25
2022-08-21T10:26:24.833Z,7.80
2022-08-21T10:29:14.514Z,9.02
2022-08-21T10:32:05.034Z,8.40
2022-08-21T10:35:07.620Z,8.00
2022-08-21T10:37:49.809Z,8.50
2022-08-21T10:40:40.051Z,8.88
2022-08-21T10:43:29.760Z,9.07
2022-08-21T10:46:20.172Z,8.50
2022-08-21T10:49:09.889Z,8.10
2022-08-21T10:51:45.557Z,8.63
2022-08-21T10:54:35.342Z,8.73
2022-08-21T10:57:09.489Z,7.97
2022-08-21T10:59:50.135Z,8.32
2022-08-21T11:02:31.815Z,8.77
2022-08-21T11:05:21.907Z,7.82
2022-08-21T11:07:55.300Z,6.45
2022-08-21T11:10:29.368Z,7.85
2022-08-21T11:13:10.821Z,7.75
2022-08-21T11:15:47.159Z,7.40
2022-08-21T11:18:37.276Z,7.63
2022-08-21T11:21:27.376Z,8.40
2022-08-21T11:24:07.358Z,8.38
2022-08-21T11:26:47.162Z,8.50
2022-08-21T11:29:27.508Z,15.65
2022-08-21T11:32:06.334Z,15.25
2022-08-21T11:34:51.920Z,11.65
2022-08-21T11:37:27.348Z,9.88
2022-08-21T11:40:17.444Z,10.25
2022-08-21T11:42:57.272Z,8.85
2022-08-21T11:45:41.005Z,8.35
2022-08-21T11:48:18.168Z,8.27
2022-08-21T11:50:48.981Z,8.80
2022-08-21T11:53:27.539Z,9.35
2022-08-21T11:56:06.019Z,8.65
2022-08-21T11:58:42.417Z,9.73
2022-08-21T12:01:15.516Z,11.68
2022-08-21T12:03:54.994Z,13.45
2022-08-21T12:06:33.212Z,13.20
2022-08-21T12:09:05.558Z,11.70
2022-08-21T12:11:47.119Z,11.52
2022-08-21T12:14:19.729Z,10.90
2022-08-21T12:16:53.184Z,11.35
2022-08-21T12:19:39.022Z,10.93
2022-08-21T12:22:14.207Z,10.15
2022-08-21T12:24:56.690Z,9.90
2022-08-21T12:27:34.194Z,10.38
2022-08-21T12:30:10.250Z,10.35
2022-08-21T12:32:49.459Z,10.52
2022-08-21T12:35:25.842Z,11.80
2022-08-21T12:38:01.564Z,12.82
2022-08-21T12:40:41.453Z,12.95
2022-08-21T12:43:16.885Z,13.23
2022-08-21T12:45:49.810Z,13.00
2022-08-21T12:48:40.482Z,13.20
2022-08-21T12:51:19.516Z,12.93
2022-08-21T12:53:55.001Z,15.27
2022-08-21T12:56:43.303Z,15.52
2022-08-21T12:59:16.203Z,14.82
2022-08-21T13:01:51.439Z,16.35
2022-08-21T13:04:44.197Z,16.83
2022-08-21T13:07:21.043Z,17.00
2022-08-21T13:09:52.866Z,16.38
2022-08-21T13:12:32.268Z,17.23
2022-08-21T13:15:08.328Z,17.40
2022-08-21T13:17:42.511Z,16.05
2022-08-21T13:20:21.814Z,16.25
2022-08-21T13:22:52.669Z,18.38
2022-08-21T13:25:24.773Z,18.50
2022-08-21T13:28:03.074Z,18.70
2022-08-21T13:30:33.701Z,18.65
2022-08-21T13:33:12.316Z,19.45
2022-08-21T13:36:04.032Z,20.05
2022-08-21T13:38:36.288Z,21.52
2022-08-21T13:41:26.081Z,19.73
2022-08-21T13:44:04.577Z,20.17
2022-08-21T13:46:37.932Z,20.38
2022-08-21T13:49:09.949Z,19.17
2022-08-21T13:51:40.878Z,20.55
2022-08-21T13:54:33.447Z,31.05
2022-08-21T13:57:04.411Z,32.45
2022-08-21T13:59:36.756Z,14.98
2022-08-21T14:02:24.539Z,14.13
2022-08-21T14:04:59.743Z,14.38
2022-08-21T14:07:40.103Z,13.63
2022-08-21T14:10:20.993Z,13.70
2022-08-21T14:13:06.179Z,13.93
2022-08-21T14:15:41.491Z,23.98
2022-08-21T14:18:22.456Z,15.25
2022-08-21T14:20:53.557Z,14.95
2022-08-21T14:23:32.682Z,14.18
2022-08-21T14:26:09.191Z,14.43
2022-08-21T14:28:44.666Z,14.80
2022-08-21T14:31:23.378Z,14.77
2022-08-21T14:33:54.132Z,16.45
2022-08-21T14:36:24.686Z,21.17
2022-08-21T14:38:55.329Z,19.98
2022-08-21T14:41:30.093Z,20.83
2022-08-21T14:44:08.211Z,15.43
2022-08-21T14:46:56.023Z,15.73
2022-08-21T14:49:29.220Z,15.10
2022-08-21T14:52:01.161Z,14.50
2022-08-21T14:54:35.273Z,17.92
2022-08-21T14:57:11.420Z,15.70
2022-08-21T14:59:42.576Z,14.55
2022-08-21T15:02:13.958Z,15.07
2022-08-21T15:04:45.038Z,24.73
2022-08-21T15:07:15.605Z,28.65
2022-08-21T15:09:47.634Z,16.15
2022-08-21T15:12:18.974Z,17.15
2022-08-21T15:14:52.533Z,16.42
2022-08-21T15:17:23.637Z,17.13
2022-08-21T15:19:54.262Z,16.83
2022-08-21T15:22:27.892Z,15.10
2022-08-21T15:24:58.867Z,14.43
2022-08-21T15:27:30.414Z,13.52
2022-08-21T15:30:01.192Z,13.30
2022-08-21T15:36:39.785Z,13.10
2022-08-21T15:39:14.251Z,12.75
2022-08-21T15:41:44.678Z,12.82
2022-08-21T15:44:16.396Z,12.00
2022-08-21T15:46:48.373Z,12.93
2022-08-21T15:49:21.306Z,13.07
2022-08-21T15:51:53.841Z,14.02
2022-08-21T15:54:24.251Z,14.98
2022-08-21T15:56:57.389Z,15.93
2022-08-21T15:59:32.345Z,13.30
2022-08-21T16:02:02.948Z,11.30
2022-08-21T16:04:33.370Z,10.88
2022-08-21T16:07:07.795Z,11.77
2022-08-21T16:09:39.848Z,10.70
2022-08-21T16:12:11.743Z,11.15
2022-08-21T16:14:43.836Z,11.30
2022-08-21T16:17:14.533Z,10.07
2022-08-21T16:19:45.331Z,12.80
2022-08-21T16:22:16.285Z,10.75
2022-08-21T16:24:46.763Z,8.98
2022-08-21T16:27:19.130Z,9.77
2022-08-21T16:29:52.364Z,8.70
2022-08-21T16:32:22.966Z,8.80
2022-08-21T16:34:53.584Z,8.88
2022-08-21T16:37:25.028Z,7.85
2022-08-21T16:39:55.732Z,7.30
2022-08-21T16:42:29.896Z,8.65
2022-08-21T16:45:01.136Z,8.73
2022-08-21T16:47:31.454Z,9.45
2022-08-21T16:50:04.090Z,10.38
2022-08-21T16:52:34.713Z,11.43
2022-08-21T16:55:06.961Z,17.10
2022-08-21T16:57:39.729Z,18.60
2022-08-21T17:00:13.760Z,19.80
2022-08-21T17:02:49.955Z,16.05
2022-08-21T17:05:20.694Z,16.17
2022-08-21T17:07:51.077Z,17.77
2022-08-21T17:10:21.762Z,17.65
2022-08-21T17:12:57.522Z,17.58
2022-08-21T17:15:30.514Z,18.08
2022-08-21T17:18:01.381Z,19.08
2022-08-21T17:20:32.947Z,19.77
2022-08-21T17:23:03.208Z,19.17
2022-08-21T17:25:33.811Z,22.80
2022-08-21T17:28:04.163Z,23.88
2022-08-21T17:30:34.663Z,23.73
2022-08-21T17:33:04.789Z,23.77
2022-08-21T17:35:34.738Z,23.10
2022-08-21T17:38:05.361Z,23.50
2022-08-21T17:40:36.937Z,24.42
2022-08-21T17:43:11.097Z,26.38
2022-08-21T17:45:44.847Z,26.90
2022-08-21T17:48:15.627Z,24.48
2022-08-21T17:50:45.866Z,21.00
2022-08-21T17:53:16.218Z,18.92
2022-08-21T17:55:46.988Z,19.65
2022-08-21T17:58:17.892Z,20.60
2022-08-21T18:00:49.534Z,19.63
2022-08-21T18:03:22.378Z,21.05
2022-08-21T18:05:57.147Z,19.58
2022-08-21T18:08:27.535Z,19.70
2022-08-21T18:10:59.627Z,20.73
2022-08-21T18:13:32.723Z,20.02
2022-08-21T18:16:03.764Z,20.65
2022-08-21T18:18:39.415Z,20.85
2022-08-21T18:21:09.908Z,20.27
2022-08-21T18:23:44.315Z,21.00
2022-08-21T18:26:22.411Z,21.92
2022-08-21T18:28:52.847Z,21.10
2022-08-21T18:31:23.433Z,20.00
2022-08-21T18:33:57.945Z,19.40
2022-08-21T18:36:30.291Z,18.65
2022-08-21T18:39:19.508Z,17.73
2022-08-21T18:41:52.247Z,17.33
2022-08-21T18:44:24.761Z,16.60
2022-08-21T18:46:59.375Z,16.77
2022-08-21T18:49:30.464Z,16.35
2022-08-21T18:52:03.238Z,16.38
2022-08-21T18:54:33.506Z,14.93
2022-08-21T18:59:59.261Z,16.38
2022-08-21T19:02:31.609Z,17.15
2022-08-21T19:05:04.359Z,16.40
2022-08-21T19:07:34.508Z,16.10
2022-08-21T19:10:28.033Z,17.08
2022-08-21T19:12:56.320Z,17.90
2022-08-21T19:15:26.694Z,16.67
2022-08-21T19:17:57.357Z,17.20
2022-08-21T19:20:34.189Z,16.33
2022-08-21T19:23:05.238Z,15.82
2022-08-21T19:25:36.399Z,17.23
2022-08-21T19:28:11.565Z,17.33
2022-08-21T19:33:39.446Z,15.98
2022-08-21T19:36:10.875Z,15.40
2022-08-21T19:38:41.851Z,15.88
2022-08-21T19:41:12.942Z,15.38
2022-08-21T19:43:45.710Z,15.40
2022-08-21T19:46:18.655Z,16.85
2022-08-21T19:48:49.418Z,16.33
2022-08-21T19:51:19.678Z,15.95
2022-08-21T19:53:53.802Z,15.38
2022-08-21T19:56:28.519Z,15.43
2022-08-21T19:58:59.273Z,15.50
2022-08-21T20:01:30.658Z,14.73
2022-08-21T20:04:02.374Z,15.30
2022-08-21T20:06:33.014Z,15.68
2022-08-21T20:09:03.194Z,15.20
2022-08-21T20:11:42.944Z,15.73
2022-08-21T20:14:14.522Z,14.82
2022-08-21T20:16:45.865Z,16.85
2022-08-21T20:19:16.227Z,15.93
2022-08-21T20:21:48.879Z,14.75
2022-08-21T20:24:19.568Z,16.10
2022-08-21T20:26:50.032Z,15.90
2022-08-21T20:29:24.532Z,14.98
2022-08-21T20:32:12.477Z,15.73
2022-08-21T20:34:45.182Z,15.18
2022-08-21T20:40:09.587Z,15.15
2022-08-21T20:42:40.781Z,14.90
2022-08-21T20:45:12.144Z,15.23
2022-08-21T20:47:42.475Z,16.10
2022-08-21T20:50:14.608Z,16.17
2022-08-21T20:52:44.736Z,16.23
2022-08-21T20:55:16.889Z,17.02
2022-08-21T20:58:04.351Z,17.20
2022-08-21T21:00:37.396Z,17.80
2022-08-21T21:03:16.546Z,15.93
2022-08-21T21:06:03.422Z,16.45
2022-08-21T21:08:49.732Z,16.00
2022-08-21T21:11:23.278Z,16.35
2022-08-21T21:14:03.261Z,18.00
2022-08-21T21:16:42.490Z,16.63
2022-08-21T21:19:26.192Z,17.88
2022-08-21T21:22:16.183Z,18.77
2022-08-21T21:25:00.040Z,17.85
2022-08-21T21:27:42.076Z,18.75
2022-08-21T21:30:21.005Z,18.15
2022-08-21T21:32:51.491Z,18.30
2022-08-21T21:38:26.091Z,18.73
2022-08-21T21:41:08.762Z,19.27
2022-08-21T21:43:46.819Z,19.65
2022-08-21T21:46:24.274Z,19.10
2022-08-21T21:49:14.038Z,20.45
2022-08-21T21:51:59.645Z,20.27
2022-08-21T21:54:47.369Z,19.75
2022-08-21T21:57:37.411Z,19.75
2022-08-21T22:00:27.200Z,20.70
2022-08-21T22:03:16.892Z,21.25
2022-08-21T22:09:16.622Z,30.70
2022-08-21T22:12:07.854Z,32.15
2022-08-21T22:14:41.592Z,27.42
2022-08-21T22:17:31.322Z,21.88
2022-08-21T22:20:03.656Z,29.08
2022-08-21T22:22:35.129Z,30.27
2022-08-21T22:25:10.945Z,31.48
2022-08-21T22:27:41.263Z,31.67
2022-08-21T22:30:13.217Z,21.83
2022-08-21T22:32:48.517Z,22.70
2022-08-21T22:35:31.632Z,22.27
2022-08-21T22:38:03.001Z,23.27
2022-08-21T22:40:34.954Z,24.58
2022-08-21T22:43:07.850Z,23.80
2022-08-21T22:45:58.962Z,30.80
2022-08-21T22:48:32.064Z,25.05
2022-08-21T22:51:13.011Z,24.83
2022-08-21T22:53:44.714Z,25.55
2022-08-21T22:56:29.694Z,27.35
2022-08-21T22:59:01.691Z,30.52
2022-08-21T23:01:34.880Z,26.27
2022-08-21T23:04:24.869Z,25.33
2022-08-21T23:06:59.732Z,25.23
2022-08-21T23:09:39.365Z,24.92
2022-08-21T23:18:17.171Z,27.40
2022-08-21T23:24:00.817Z,25.95
2022-08-21T23:26:35.842Z,29.50
2022-08-21T23:29:26.190Z,31.15
2022-08-21T23:32:15.842Z,29.63
2022-08-21T23:34:56.921Z,29.25
2022-08-21T23:37:51.507Z,34.65
2022-08-21T23:40:27.878Z,61.70
2022-08-21T23:43:05.542Z,54.47
2022-08-21T23:45:48.906Z,49.33
2022-08-21T23:48:39.491Z,40.55
2022-08-21T23:51:17.523Z,52.30
2022-08-21T23:53:54.133Z,41.70
2022-08-21T23:56:30.012Z,30.45
2022-08-21T23:59:22.235Z,26.25
